createdAt,value
2019-05-09T00:00:04.154Z,9.83
2019-05-09T00:01:04.177Z,9.82
2019-05-09T00:02:04.108Z,9.82
2019-05-09T00:03:04.081Z,9.68
2019-05-09T00:04:04.069Z,9.67
2019-05-09T00:05:04.059Z,9.64
2019-05-09T00:06:04.714Z,9.53
2019-05-09T00:07:04.113Z,9.58
2019-05-09T00:08:04.026Z,9.57
2019-05-09T00:09:04.015Z,9.57
2019-05-09T00:10:04.252Z,9.57
2019-05-09T00:11:03.991Z,9.58
2019-05-09T00:12:03.979Z,9.56
2019-05-09T00:13:04.040Z,9.58
2019-05-09T00:14:04.565Z,9.64
2019-05-09T00:15:04.651Z,9.56
2019-05-09T00:16:03.958Z,9.58
2019-05-09T00:17:03.983Z,9.60
2019-05-09T00:18:04.136Z,9.60
2019-05-09T00:19:03.974Z,9.56
2019-05-09T00:20:03.892Z,9.60
2019-05-09T00:21:04.218Z,9.49
2019-05-09T00:22:03.863Z,9.53
2019-05-09T00:23:03.853Z,9.45
2019-05-09T00:24:03.844Z,9.43
2019-05-09T00:25:03.921Z,9.42
2019-05-09T00:26:04.290Z,9.43
2019-05-09T00:27:04.035Z,9.39
2019-05-09T00:28:04.217Z,9.38
2019-05-09T00:29:03.943Z,9.25
2019-05-09T00:30:03.977Z,9.21
2019-05-09T00:31:03.840Z,9.16
2019-05-09T00:32:03.747Z,9.04
2019-05-09T00:33:03.882Z,8.91
2019-05-09T00:34:04.282Z,8.87
2019-05-09T00:35:04.066Z,8.90
2019-05-09T00:36:04.343Z,8.84
2019-05-09T00:37:03.764Z,8.86
2019-05-09T00:38:04.445Z,8.97
2019-05-09T00:39:04.143Z,8.90
2019-05-09T00:40:04.083Z,8.97
2019-05-09T00:41:03.903Z,8.97
2019-05-09T00:42:04.377Z,9.04
2019-05-09T00:43:04.108Z,8.99
2019-05-09T00:44:03.611Z,9.05
2019-05-09T00:45:04.227Z,9.01
2019-05-09T00:46:04.378Z,8.96
2019-05-09T00:47:04.245Z,8.96
2019-05-09T00:48:03.602Z,8.97
2019-05-09T00:49:05.047Z,8.97
2019-05-09T00:50:05.189Z,9.13
2019-05-09T00:51:03.655Z,8.99
2019-05-09T00:52:03.740Z,8.96
2019-05-09T00:53:03.515Z,8.93
2019-05-09T00:54:04.213Z,8.86
2019-05-09T00:55:03.991Z,8.83
2019-05-09T00:56:04.104Z,8.83
2019-05-09T00:57:03.467Z,8.86
2019-05-09T00:58:04.190Z,8.76
2019-05-09T00:59:04.234Z,8.75
2019-05-09T01:00:04.017Z,8.47
2019-05-09T01:01:04.292Z,8.53
2019-05-09T01:02:04.070Z,8.32
2019-05-09T01:03:03.685Z,8.35
2019-05-09T01:04:04.369Z,8.35
2019-05-09T01:05:04.230Z,8.40
2019-05-09T01:06:04.301Z,8.32
2019-05-09T01:07:03.702Z,8.39
2019-05-09T01:08:04.196Z,8.50
2019-05-09T01:09:04.176Z,8.68
2019-05-09T01:10:04.239Z,8.84
2019-05-09T01:11:11.686Z,8.90
2019-05-09T01:12:04.367Z,9.01
2019-05-09T01:13:03.727Z,8.99
2019-05-09T01:14:03.721Z,8.90
2019-05-09T01:15:03.526Z,8.90
2019-05-09T01:16:04.481Z,8.96
2019-05-09T01:17:04.233Z,8.97
2019-05-09T01:18:04.370Z,9.04
2019-05-09T01:19:03.710Z,8.93
2019-05-09T01:20:03.595Z,9.02
2019-05-09T01:21:03.984Z,8.97
2019-05-09T01:22:04.016Z,9.10
2019-05-09T01:23:03.556Z,8.99
2019-05-09T01:24:03.546Z,8.97
2019-05-09T01:26:13.489Z,9.12
2019-05-09T01:27:14.206Z,9.10
2019-05-09T01:28:13.967Z,9.06
2019-05-09T01:29:13.802Z,9.24
2019-05-09T01:30:13.523Z,9.18
2019-05-09T01:31:13.255Z,9.25
2019-05-09T01:32:14.411Z,9.18
2019-05-09T01:33:13.592Z,9.15
2019-05-09T01:34:13.330Z,9.28
2019-05-09T01:35:13.182Z,9.35
2019-05-09T01:36:14.375Z,9.40
2019-05-09T01:37:14.071Z,9.52
2019-05-09T01:38:14.194Z,9.64
2019-05-09T01:39:13.795Z,9.82
2019-05-09T01:40:13.229Z,9.88
2019-05-09T01:41:26.264Z,10.07
2019-05-09T01:42:13.764Z,10.14
2019-05-09T01:43:13.853Z,10.10
2019-05-09T01:44:13.413Z,9.99
2019-05-09T01:45:14.132Z,9.96
2019-05-09T01:46:14.277Z,9.99
2019-05-09T01:47:14.098Z,9.94
2019-05-09T01:48:13.945Z,9.89
2019-05-09T01:49:13.814Z,9.88
2019-05-09T01:50:14.027Z,9.82
2019-05-09T01:51:13.897Z,9.73
2019-05-09T01:52:13.776Z,9.68
2019-05-09T01:53:13.376Z,9.64
2019-05-09T01:54:13.266Z,9.52
2019-05-09T01:55:14.119Z,9.40
2019-05-09T01:56:13.996Z,9.45
2019-05-09T01:57:13.846Z,9.34
2019-05-09T01:58:13.883Z,9.30
2019-05-09T01:59:13.701Z,9.28
2019-05-09T02:00:13.237Z,9.25
2019-05-09T02:01:13.401Z,9.24
2019-05-09T02:02:14.108Z,9.24
2019-05-09T02:03:13.940Z,9.27
2019-05-09T02:04:13.683Z,9.20
2019-05-09T02:05:13.468Z,9.13
2019-05-09T02:06:13.627Z,9.06
2019-05-09T02:07:13.273Z,9.06
2019-05-09T02:08:14.065Z,9.09
2019-05-09T02:09:14.070Z,9.06
2019-05-09T02:10:13.931Z,9.15
2019-05-09T02:11:13.256Z,9.13
2019-05-09T02:12:13.960Z,9.21
2019-05-09T02:13:13.653Z,8.97
2019-05-09T02:14:13.496Z,8.96
2019-05-09T02:15:13.066Z,9.04
2019-05-09T02:16:13.994Z,8.93
2019-05-09T02:17:13.990Z,8.99
2019-05-09T02:18:13.739Z,9.01
2019-05-09T02:19:13.603Z,8.99
2019-05-09T02:20:13.666Z,8.99
2019-05-09T02:21:14.450Z,8.94
2019-05-09T02:22:13.086Z,9.05
2019-05-09T02:23:13.883Z,8.93
2019-05-09T02:24:13.892Z,8.91
2019-05-09T02:25:13.676Z,8.87
2019-05-09T02:26:13.625Z,8.79
2019-05-09T02:27:13.243Z,8.90
2019-05-09T02:28:14.040Z,8.86
2019-05-09T02:29:13.807Z,8.76
2019-05-09T02:30:15.135Z,8.65
2019-05-09T02:31:15.700Z,8.63
2019-05-09T02:32:14.170Z,8.62
2019-05-09T02:33:14.507Z,8.62
2019-05-09T02:34:14.931Z,8.68
2019-05-09T02:35:11.768Z,8.75
2019-05-09T02:36:11.688Z,8.78
2019-05-09T02:37:11.677Z,8.79
2019-05-09T02:38:11.671Z,8.87
2019-05-09T02:39:11.657Z,8.86
2019-05-09T02:40:11.647Z,8.86
2019-05-09T02:41:11.707Z,8.81
2019-05-09T02:42:14.226Z,8.83
2019-05-09T02:43:11.615Z,8.87
2019-05-09T02:44:11.604Z,8.90
2019-05-09T02:45:11.590Z,8.88
2019-05-09T02:46:11.589Z,8.94
2019-05-09T02:47:11.644Z,8.99
2019-05-09T02:48:11.558Z,8.94
2019-05-09T02:49:11.547Z,8.97
2019-05-09T02:50:11.539Z,8.99
2019-05-09T02:51:11.522Z,9.04
2019-05-09T02:52:11.512Z,9.18
2019-05-09T02:53:11.565Z,9.25
2019-05-09T02:54:11.492Z,9.32
2019-05-09T02:55:11.476Z,9.34
2019-05-09T02:56:11.466Z,9.43
2019-05-09T02:57:11.459Z,9.38
2019-05-09T02:58:11.450Z,9.35
2019-05-09T02:59:11.492Z,9.35
2019-05-09T03:00:11.431Z,9.38
2019-05-09T03:01:11.409Z,9.42
2019-05-09T03:02:11.400Z,9.40
2019-05-09T03:03:11.389Z,9.34
2019-05-09T03:04:11.375Z,9.35
2019-05-09T03:05:11.444Z,9.28
2019-05-09T03:06:11.354Z,9.23
2019-05-09T03:07:11.349Z,9.16
2019-05-09T03:08:11.335Z,9.13
2019-05-09T03:09:11.323Z,9.04
2019-05-09T03:10:11.309Z,8.99
2019-05-09T03:11:11.365Z,8.93
2019-05-09T03:12:26.529Z,8.83
2019-05-09T03:13:12.273Z,8.75
2019-05-09T03:14:11.272Z,8.76
2019-05-09T03:15:11.254Z,8.69
2019-05-09T03:16:11.244Z,8.63
2019-05-09T03:17:11.293Z,8.58
2019-05-09T03:18:11.219Z,8.55
2019-05-09T03:19:11.211Z,8.53
2019-05-09T03:20:11.198Z,8.47
2019-05-09T03:21:11.186Z,8.40
2019-05-09T03:22:11.174Z,8.40
2019-05-09T03:23:11.249Z,8.37
2019-05-09T03:24:11.161Z,8.36
2019-05-09T03:25:11.144Z,8.42
2019-05-09T03:26:11.137Z,8.36
2019-05-09T03:27:11.130Z,8.40
2019-05-09T03:28:11.106Z,8.44
2019-05-09T03:29:11.159Z,8.42
2019-05-09T03:30:12.267Z,8.35
2019-05-09T03:31:11.086Z,8.36
2019-05-09T03:32:11.072Z,8.33
2019-05-09T03:33:11.054Z,8.33
2019-05-09T03:34:11.045Z,8.33
2019-05-09T03:35:11.114Z,8.35
2019-05-09T03:36:11.019Z,8.35
2019-05-09T03:37:11.006Z,8.37
2019-05-09T03:38:10.996Z,8.47
2019-05-09T03:39:10.990Z,8.50
2019-05-09T03:40:10.975Z,8.51
2019-05-09T03:41:11.040Z,8.44
2019-05-09T03:42:10.950Z,8.39
2019-05-09T03:43:10.939Z,8.48
2019-05-09T03:44:10.932Z,8.37
2019-05-09T03:45:10.917Z,8.44
2019-05-09T03:46:10.903Z,8.47
2019-05-09T03:47:10.966Z,8.54
2019-05-09T03:48:10.882Z,8.51
2019-05-09T03:49:10.877Z,8.58
2019-05-09T03:50:10.861Z,8.60
2019-05-09T03:51:10.855Z,8.62
2019-05-09T03:52:10.837Z,8.69
2019-05-09T03:53:10.891Z,8.69
2019-05-09T03:54:10.815Z,8.69
2019-05-09T03:55:10.804Z,8.71
2019-05-09T03:56:10.793Z,8.69
2019-05-09T03:57:10.780Z,8.69
2019-05-09T03:58:10.769Z,8.76
2019-05-09T03:59:10.831Z,8.65
2019-05-09T04:00:10.747Z,8.60
2019-05-09T04:01:11.043Z,8.48
2019-05-09T04:02:10.730Z,8.51
2019-05-09T04:03:10.717Z,8.33
2019-05-09T04:04:10.703Z,8.37
2019-05-09T04:05:10.759Z,8.36
2019-05-09T04:06:10.677Z,8.33
2019-05-09T04:07:10.672Z,8.21
2019-05-09T04:08:10.656Z,8.04
2019-05-09T04:09:10.644Z,7.97
2019-05-09T04:10:10.635Z,7.82
2019-05-09T04:11:10.694Z,7.79
2019-05-09T04:12:10.612Z,7.59
2019-05-09T04:13:11.125Z,7.52
2019-05-09T04:14:10.592Z,7.37
2019-05-09T04:15:10.582Z,7.32
2019-05-09T04:16:10.565Z,7.38
2019-05-09T04:17:10.626Z,7.27
2019-05-09T04:18:10.545Z,7.20
2019-05-09T04:19:10.533Z,7.23
2019-05-09T04:20:10.529Z,7.16
2019-05-09T04:21:10.509Z,7.05
2019-05-09T04:22:10.497Z,7.01
2019-05-09T04:23:10.567Z,6.99
2019-05-09T04:24:10.477Z,6.91
2019-05-09T04:25:10.462Z,6.83
2019-05-09T04:26:10.457Z,6.86
2019-05-09T04:27:10.447Z,6.84
2019-05-09T04:28:10.431Z,6.87
2019-05-09T04:29:10.480Z,6.99
2019-05-09T04:30:10.409Z,6.99
2019-05-09T04:31:10.407Z,6.99
2019-05-09T04:32:10.387Z,7.09
2019-05-09T04:33:10.372Z,7.04
2019-05-09T04:34:10.362Z,7.13
2019-05-09T04:35:10.423Z,7.20
2019-05-09T04:36:10.341Z,7.22
2019-05-09T04:37:12.318Z,7.26
2019-05-09T04:38:10.320Z,7.31
2019-05-09T04:39:12.764Z,7.34
2019-05-09T04:40:11.370Z,7.32
2019-05-09T04:41:10.284Z,7.26
2019-05-09T04:42:10.270Z,7.37
2019-05-09T04:43:16.607Z,7.34
2019-05-09T04:44:16.835Z,7.50
2019-05-09T04:45:11.235Z,7.63
2019-05-09T04:46:13.011Z,7.62
2019-05-09T04:47:11.216Z,7.62
2019-05-09T04:48:13.244Z,7.72
2019-05-09T04:49:11.195Z,7.75
2019-05-09T04:50:10.183Z,7.81
2019-05-09T04:51:10.169Z,8.00
2019-05-09T04:52:10.224Z,8.15
2019-05-09T04:53:10.148Z,8.25
2019-05-09T04:54:10.133Z,8.35
2019-05-09T04:55:10.126Z,8.51
2019-05-09T04:56:10.114Z,8.55
2019-05-09T04:57:10.106Z,8.71
2019-05-09T04:58:10.158Z,8.79
2019-05-09T04:59:10.075Z,8.94
2019-05-09T05:00:10.206Z,8.97
2019-05-09T05:01:10.061Z,9.04
2019-05-09T05:02:10.043Z,9.06
2019-05-09T05:03:10.034Z,9.24
2019-05-09T05:04:10.088Z,9.32
2019-05-09T05:05:10.011Z,9.39
2019-05-09T05:06:09.997Z,9.56
2019-05-09T05:07:09.995Z,9.66
2019-05-09T05:08:09.985Z,9.73
2019-05-09T05:09:09.969Z,9.85
2019-05-09T05:10:10.019Z,9.94
2019-05-09T05:11:09.942Z,9.88
2019-05-09T05:12:09.936Z,9.94
2019-05-09T05:13:23.072Z,10.07
2019-05-09T05:14:10.912Z,10.15
2019-05-09T05:15:09.910Z,10.24
2019-05-09T05:16:09.951Z,10.18
2019-05-09T05:17:11.333Z,10.28
2019-05-09T05:18:09.865Z,10.19
2019-05-09T05:19:09.853Z,10.15
2019-05-09T05:20:09.844Z,10.24
2019-05-09T05:21:09.832Z,10.22
2019-05-09T05:22:09.889Z,10.40
2019-05-09T05:23:09.808Z,10.53
2019-05-09T05:24:09.798Z,10.62
2019-05-09T05:25:09.791Z,10.78
2019-05-09T05:26:09.771Z,10.96
2019-05-09T05:27:09.767Z,11.01
2019-05-09T05:28:09.811Z,11.09
2019-05-09T05:29:09.737Z,11.16
2019-05-09T05:30:09.728Z,11.25
2019-05-09T05:31:09.718Z,11.32
2019-05-09T05:32:09.721Z,11.39
2019-05-09T05:33:09.720Z,11.56
2019-05-09T05:34:09.747Z,11.71
2019-05-09T05:35:09.675Z,11.83
2019-05-09T05:36:09.663Z,12.15
2019-05-09T05:37:09.647Z,12.30
2019-05-09T05:38:09.647Z,12.49
2019-05-09T05:39:09.634Z,12.75
2019-05-09T05:40:09.678Z,13.00
2019-05-09T05:41:09.603Z,13.41
2019-05-09T05:42:09.591Z,13.58
2019-05-09T05:43:09.584Z,13.80
2019-05-09T05:44:09.580Z,14.07
2019-05-09T05:45:10.545Z,14.31
2019-05-09T05:46:09.611Z,14.54
2019-05-09T05:47:09.536Z,14.46
2019-05-09T05:48:09.526Z,14.62
2019-05-09T05:49:09.514Z,14.49
2019-05-09T05:50:09.503Z,14.38
2019-05-09T05:51:09.491Z,14.74
2019-05-09T05:52:09.546Z,14.99
2019-05-09T05:53:09.468Z,14.98
2019-05-09T05:54:09.457Z,14.60
2019-05-09T05:55:09.444Z,14.72
2019-05-09T05:56:09.432Z,14.75
2019-05-09T05:57:09.423Z,14.90
2019-05-09T05:58:09.477Z,14.78
2019-05-09T05:59:09.401Z,14.72
2019-05-09T06:00:09.388Z,14.74
2019-05-09T06:01:09.377Z,15.01
2019-05-09T06:02:09.368Z,15.27
2019-05-09T06:03:09.359Z,15.13
2019-05-09T06:04:09.419Z,14.98
2019-05-09T06:05:09.335Z,15.08
2019-05-09T06:06:09.330Z,15.19
2019-05-09T06:07:09.347Z,15.38
2019-05-09T06:09:43.097Z,15.64
2019-05-09T06:10:19.067Z,15.74
2019-05-09T06:11:19.057Z,16.04
2019-05-09T06:12:19.046Z,16.31
2019-05-09T06:13:19.034Z,16.44
2019-05-09T06:14:19.020Z,16.78
2019-05-09T06:15:19.076Z,16.52
2019-05-09T06:16:22.187Z,16.59
2019-05-09T06:17:18.985Z,16.42
2019-05-09T06:18:18.976Z,16.09
2019-05-09T06:19:18.965Z,15.49
2019-05-09T06:20:18.953Z,15.11
2019-05-09T06:21:19.008Z,14.84
2019-05-09T06:22:18.932Z,14.67
2019-05-09T06:23:18.928Z,14.49
2019-05-09T06:24:18.907Z,14.42
2019-05-09T06:25:20.819Z,14.31
2019-05-09T06:26:19.045Z,14.10
2019-05-09T06:27:18.937Z,13.76
2019-05-09T06:28:18.868Z,13.74
2019-05-09T06:29:18.852Z,13.79
2019-05-09T06:30:18.841Z,13.76
2019-05-09T06:31:18.833Z,14.69
2019-05-09T06:32:19.063Z,15.43
2019-05-09T06:33:18.874Z,14.88
2019-05-09T06:34:19.093Z,14.46
2019-05-09T06:35:18.783Z,14.20
2019-05-09T06:36:19.019Z,14.10
2019-05-09T06:37:18.765Z,14.06
2019-05-09T06:38:18.973Z,14.37
2019-05-09T06:39:18.813Z,14.46
2019-05-09T06:40:21.399Z,15.02
2019-05-09T06:41:18.713Z,14.88
2019-05-09T06:42:18.795Z,15.02
2019-05-09T06:43:18.694Z,14.75
2019-05-09T06:44:20.734Z,14.37
2019-05-09T06:45:18.733Z,14.34
2019-05-09T06:46:18.684Z,14.20
2019-05-09T06:47:18.689Z,13.99
2019-05-09T06:48:18.633Z,14.01
2019-05-09T06:49:27.506Z,13.98
2019-05-09T06:50:19.677Z,13.73
2019-05-09T06:51:21.257Z,13.58
2019-05-09T06:52:18.590Z,13.55
2019-05-09T06:53:18.576Z,13.55
2019-05-09T06:54:18.566Z,13.41
2019-05-09T06:55:18.567Z,13.37
2019-05-09T06:56:18.605Z,13.32
2019-05-09T06:57:18.811Z,13.37
2019-05-09T06:58:18.532Z,13.36
2019-05-09T06:59:19.120Z,13.30
2019-05-09T07:00:18.497Z,13.32
2019-05-09T07:01:18.500Z,13.17
2019-05-09T07:02:18.542Z,13.12
2019-05-09T07:03:18.578Z,13.18
2019-05-09T07:04:18.469Z,13.12
2019-05-09T07:05:18.438Z,13.20
2019-05-09T07:06:18.431Z,13.24
2019-05-09T07:07:18.419Z,13.18
2019-05-09T07:08:18.472Z,13.11
2019-05-09T07:09:18.398Z,13.14
2019-05-09T07:10:18.390Z,13.14
2019-05-09T07:11:19.161Z,13.12
2019-05-09T07:12:18.359Z,13.25
2019-05-09T07:13:18.373Z,14.12
2019-05-09T07:14:28.362Z,14.16
2019-05-09T07:15:19.328Z,14.49
2019-05-09T07:16:18.800Z,15.20
2019-05-09T07:17:18.696Z,15.75
2019-05-09T07:18:18.425Z,15.97
2019-05-09T07:19:18.278Z,16.22
2019-05-09T07:20:18.443Z,16.59
2019-05-09T07:21:19.014Z,17.17
2019-05-09T07:22:18.629Z,17.40
2019-05-09T07:23:18.233Z,17.17
2019-05-09T07:24:18.555Z,16.73
2019-05-09T07:25:18.715Z,16.49
2019-05-09T07:26:18.265Z,16.52
2019-05-09T07:27:18.187Z,16.49
2019-05-09T07:28:18.177Z,16.16
2019-05-09T07:29:18.171Z,15.45
2019-05-09T07:30:18.166Z,14.91
2019-05-09T07:31:18.160Z,14.62
2019-05-09T07:32:18.288Z,15.08
2019-05-09T07:33:19.249Z,15.41
2019-05-09T07:34:18.527Z,15.88
2019-05-09T07:35:18.665Z,16.34
2019-05-09T07:36:18.894Z,15.85
2019-05-09T07:37:18.667Z,16.25
2019-05-09T07:38:18.142Z,16.74
2019-05-09T07:39:18.050Z,16.77
2019-05-09T07:40:18.347Z,16.80
2019-05-09T07:41:18.046Z,16.65
2019-05-09T07:42:18.203Z,17.14
2019-05-09T07:43:18.160Z,17.22
2019-05-09T07:44:18.414Z,17.36
2019-05-09T07:45:18.120Z,17.76
2019-05-09T07:46:17.975Z,16.60
2019-05-09T07:47:17.958Z,17.14
2019-05-09T07:48:18.148Z,17.10
2019-05-09T07:49:17.953Z,16.90
2019-05-09T07:50:18.907Z,17.22
2019-05-09T07:51:18.144Z,17.66
2019-05-09T07:52:18.553Z,17.36
2019-05-09T07:53:17.900Z,17.20
2019-05-09T07:54:24.846Z,17.74
2019-05-09T07:55:18.934Z,17.69
2019-05-09T07:56:18.647Z,17.73
2019-05-09T07:57:18.274Z,17.54
2019-05-09T07:58:18.661Z,17.91
2019-05-09T07:59:18.175Z,17.82
2019-05-09T08:00:18.398Z,16.83
2019-05-09T08:01:19.009Z,16.74
2019-05-09T08:02:17.806Z,16.83
2019-05-09T08:03:18.183Z,15.89
2019-05-09T08:04:18.344Z,15.45
2019-05-09T08:05:17.766Z,15.08
2019-05-09T08:06:18.502Z,15.05
2019-05-09T08:07:17.801Z,16.15
2019-05-09T08:08:18.567Z,17.15
2019-05-09T08:09:18.705Z,17.41
2019-05-09T08:10:17.696Z,17.79
2019-05-09T08:11:18.125Z,18.13
2019-05-09T08:12:18.079Z,18.42
2019-05-09T08:13:21.195Z,18.62
2019-05-09T08:14:17.842Z,17.78
2019-05-09T08:15:20.146Z,16.73
2019-05-09T08:16:18.663Z,16.65
2019-05-09T08:17:18.165Z,15.86
2019-05-09T08:18:17.616Z,15.27
2019-05-09T08:19:18.161Z,16.38
2019-05-09T08:20:17.659Z,15.93
2019-05-09T08:21:18.209Z,15.97
2019-05-09T08:22:24.592Z,17.14
2019-05-09T08:23:18.554Z,17.11
2019-05-09T08:24:18.343Z,16.62
2019-05-09T08:25:18.334Z,16.59
2019-05-09T08:26:18.880Z,16.70
2019-05-09T08:27:17.691Z,17.11
2019-05-09T08:28:19.937Z,16.81
2019-05-09T08:29:19.950Z,17.44
2019-05-09T08:30:18.101Z,18.03
2019-05-09T08:31:17.941Z,18.64
2019-05-09T08:32:18.124Z,18.99
2019-05-09T08:33:18.443Z,19.23
2019-05-09T08:34:18.697Z,18.73
2019-05-09T08:35:18.327Z,17.87
2019-05-09T08:36:18.030Z,17.33
2019-05-09T08:37:17.666Z,17.87
2019-05-09T08:38:17.965Z,17.10
2019-05-09T08:39:20.184Z,16.65
2019-05-09T08:40:18.356Z,16.34
2019-05-09T08:41:18.583Z,17.06
2019-05-09T08:42:17.999Z,18.10
2019-05-09T08:43:19.544Z,18.91
2019-05-09T08:44:18.643Z,19.66
2019-05-09T08:45:27.380Z,20.02
2019-05-09T08:46:18.418Z,19.84
2019-05-09T08:47:18.483Z,19.97
2019-05-09T08:48:18.391Z,20.18
2019-05-09T08:49:18.248Z,20.91
2019-05-09T08:50:17.676Z,21.41
2019-05-09T08:51:17.986Z,20.90
2019-05-09T08:52:19.790Z,20.33
2019-05-09T08:53:18.799Z,20.35
2019-05-09T08:54:18.421Z,20.20
2019-05-09T08:55:17.534Z,20.86
2019-05-09T08:56:17.813Z,21.30
2019-05-09T08:57:18.205Z,20.96
2019-05-09T08:58:19.556Z,19.88
2019-05-09T08:59:20.014Z,20.47
2019-05-09T09:00:18.877Z,21.20
2019-05-09T09:01:27.225Z,20.95
2019-05-09T09:02:21.864Z,21.29
2019-05-09T09:03:18.511Z,21.61
2019-05-09T09:04:18.927Z,21.20
2019-05-09T09:05:18.733Z,21.48
2019-05-09T09:06:18.340Z,20.79
2019-05-09T09:07:18.914Z,19.42
2019-05-09T09:08:18.310Z,18.84
2019-05-09T09:09:17.989Z,17.91
2019-05-09T09:10:18.629Z,17.71
2019-05-09T09:11:18.711Z,18.04
2019-05-09T09:12:27.310Z,17.92
2019-05-09T09:13:18.062Z,17.57
2019-05-09T09:14:18.474Z,17.84
2019-05-09T09:15:17.980Z,18.33
2019-05-09T09:16:21.550Z,18.33
2019-05-09T09:17:18.744Z,18.37
2019-05-09T09:18:17.951Z,19.25
2019-05-09T09:19:17.902Z,20.30
2019-05-09T09:20:18.217Z,20.71
2019-05-09T09:21:18.353Z,20.21
2019-05-09T09:22:18.014Z,19.76
2019-05-09T09:23:18.052Z,19.33
2019-05-09T09:24:17.715Z,20.03
2019-05-09T09:25:18.358Z,20.03
2019-05-09T09:26:18.382Z,19.98
2019-05-09T09:27:18.225Z,19.39
2019-05-09T09:28:18.256Z,18.94
2019-05-09T09:29:17.845Z,18.87
2019-05-09T09:30:24.170Z,18.67
2019-05-09T09:31:18.150Z,19.35
2019-05-09T09:32:18.911Z,19.51
2019-05-09T09:33:17.603Z,19.23
2019-05-09T09:34:18.122Z,19.08
2019-05-09T09:35:18.637Z,19.28
2019-05-09T09:36:17.849Z,19.97
2019-05-09T09:37:18.505Z,20.93
2019-05-09T09:38:17.691Z,21.81
2019-05-09T09:39:18.498Z,22.67
2019-05-09T09:40:17.666Z,22.72
2019-05-09T09:41:18.202Z,21.90
2019-05-09T09:42:19.962Z,21.56
2019-05-09T09:43:17.636Z,22.06
2019-05-09T09:44:18.242Z,21.91
2019-05-09T09:45:18.407Z,22.65
2019-05-09T09:46:18.170Z,22.13
2019-05-09T09:47:22.795Z,22.69
2019-05-09T09:48:18.195Z,23.39
2019-05-09T09:49:18.083Z,22.86
2019-05-09T09:50:17.756Z,21.05
2019-05-09T09:51:18.566Z,19.65
2019-05-09T09:52:18.764Z,19.15
2019-05-09T09:53:18.469Z,19.66
2019-05-09T09:54:18.817Z,18.61
2019-05-09T09:55:18.479Z,19.25
2019-05-09T09:56:18.181Z,19.87
2019-05-09T09:57:18.998Z,20.80
2019-05-09T09:58:19.063Z,21.78
2019-05-09T09:59:18.867Z,21.92
2019-05-09T10:00:18.089Z,21.88
2019-05-09T10:01:18.063Z,21.27
2019-05-09T10:02:16.425Z,21.27
2019-05-09T10:03:18.619Z,21.63
2019-05-09T10:04:23.569Z,22.31
2019-05-09T10:05:18.409Z,22.44
2019-05-09T10:06:16.380Z,20.99
2019-05-09T10:07:18.851Z,21.61
2019-05-09T10:08:18.131Z,22.54
2019-05-09T10:09:17.463Z,23.12
2019-05-09T10:10:18.428Z,23.27
2019-05-09T10:11:17.977Z,22.59
2019-05-09T10:12:18.165Z,21.74
2019-05-09T10:13:18.436Z,21.57
2019-05-09T10:14:18.503Z,22.25
2019-05-09T10:15:18.755Z,22.90
2019-05-09T10:16:26.604Z,22.13
2019-05-09T10:17:17.995Z,20.23
2019-05-09T10:18:18.246Z,19.61
2019-05-09T10:19:18.408Z,20.50
2019-05-09T10:20:18.195Z,19.83
2019-05-09T10:21:16.214Z,19.25
2019-05-09T10:22:23.458Z,18.90
2019-05-09T10:23:18.974Z,18.28
2019-05-09T10:24:17.515Z,17.99
2019-05-09T10:25:18.290Z,19.05
2019-05-09T10:26:17.797Z,18.76
2019-05-09T10:27:18.540Z,20.09
2019-05-09T10:28:21.325Z,19.39
2019-05-09T10:29:17.786Z,20.18
2019-05-09T10:30:18.035Z,20.43
2019-05-09T10:31:16.105Z,21.63
2019-05-09T10:32:18.174Z,22.60
2019-05-09T10:33:17.540Z,23.14
2019-05-09T10:34:17.731Z,23.34
2019-05-09T10:35:17.741Z,22.09
2019-05-09T10:36:16.045Z,21.41
2019-05-09T10:37:18.343Z,22.44
2019-05-09T10:38:18.086Z,22.47
2019-05-09T10:39:18.594Z,23.01
2019-05-09T10:40:16.004Z,23.08
2019-05-09T10:41:16.052Z,23.49
2019-05-09T10:42:18.637Z,22.64
2019-05-09T10:43:30.712Z,20.95
2019-05-09T10:44:18.027Z,21.56
2019-05-09T10:45:18.022Z,22.71
2019-05-09T10:46:19.096Z,23.05
2019-05-09T10:47:15.990Z,23.31
2019-05-09T10:48:15.930Z,23.05
2019-05-09T10:49:15.904Z,22.71
2019-05-09T10:50:18.378Z,22.93
2019-05-09T10:51:15.885Z,23.60
2019-05-09T10:52:17.999Z,23.47
2019-05-09T10:53:18.010Z,23.71
2019-05-09T10:54:18.366Z,23.46
2019-05-09T10:55:17.942Z,23.70
2019-05-09T10:56:18.394Z,22.75
2019-05-09T10:57:15.816Z,22.43
2019-05-09T10:58:15.811Z,22.38
2019-05-09T10:59:17.657Z,22.86
2019-05-09T11:00:18.284Z,23.27
2019-05-09T11:01:18.210Z,23.57
2019-05-09T11:02:17.518Z,22.96
2019-05-09T11:03:17.988Z,21.97
2019-05-09T11:04:17.877Z,21.29
2019-05-09T11:05:18.270Z,20.77
2019-05-09T11:06:18.001Z,20.50
2019-05-09T11:07:18.100Z,20.51
2019-05-09T11:08:18.338Z,21.48
2019-05-09T11:09:18.027Z,21.85
2019-05-09T11:10:25.959Z,21.50
2019-05-09T11:11:18.377Z,21.54
2019-05-09T11:12:17.885Z,21.76
2019-05-09T11:13:18.021Z,22.59
2019-05-09T11:14:29.671Z,22.83
2019-05-09T11:15:17.761Z,22.60
2019-05-09T11:16:18.037Z,21.41
2019-05-09T11:17:20.893Z,20.90
2019-05-09T11:18:18.544Z,20.56
2019-05-09T11:19:18.163Z,20.39
2019-05-09T11:20:15.563Z,19.83
2019-05-09T11:21:15.574Z,19.73
2019-05-09T11:22:18.162Z,19.63
2019-05-09T11:23:15.602Z,20.15
2019-05-09T11:24:15.531Z,19.88
2019-05-09T11:25:15.510Z,19.93
2019-05-09T11:26:17.684Z,19.83
2019-05-09T11:27:15.500Z,20.15
2019-05-09T11:28:17.874Z,20.31
2019-05-09T11:29:15.525Z,19.84
2019-05-09T11:30:17.531Z,19.28
2019-05-09T11:31:18.045Z,19.29
2019-05-09T11:32:17.762Z,19.48
2019-05-09T11:33:15.420Z,19.80
2019-05-09T11:34:15.407Z,20.03
2019-05-09T11:35:17.575Z,20.20
2019-05-09T11:36:20.837Z,21.02
2019-05-09T11:37:16.377Z,22.06
2019-05-09T11:38:29.437Z,21.41
2019-05-09T11:39:34.912Z,21.30
2019-05-09T11:40:16.401Z,21.26
2019-05-09T11:41:18.825Z,21.20
2019-05-09T11:42:17.697Z,20.50
2019-05-09T11:43:17.952Z,20.46
2019-05-09T11:44:15.299Z,19.73
2019-05-09T11:45:17.740Z,20.80
2019-05-09T11:46:17.720Z,21.92
2019-05-09T11:47:31.450Z,23.05
2019-05-09T11:48:18.539Z,23.83
2019-05-09T11:49:17.857Z,23.95
2019-05-09T11:50:15.228Z,23.72
2019-05-09T11:51:18.244Z,22.06
2019-05-09T11:52:18.342Z,20.33
2019-05-09T11:53:17.541Z,19.43
2019-05-09T11:54:17.210Z,19.48
2019-05-09T11:55:28.485Z,18.82
2019-05-09T11:56:17.938Z,18.50
2019-05-09T11:57:15.150Z,18.67
2019-05-09T11:58:15.208Z,18.83
2019-05-09T11:59:15.130Z,18.43
2019-05-09T12:00:15.124Z,18.27
2019-05-09T12:01:15.107Z,18.36
2019-05-09T12:02:15.099Z,18.79
2019-05-09T12:03:15.084Z,19.17
2019-05-09T12:04:15.141Z,19.25
2019-05-09T12:05:15.072Z,19.14
2019-05-09T12:06:16.176Z,18.90
2019-05-09T12:07:17.667Z,18.62
2019-05-09T12:08:17.574Z,18.68
2019-05-09T12:09:15.126Z,18.97
2019-05-09T12:10:15.086Z,19.11
2019-05-09T12:11:17.856Z,18.99
2019-05-09T12:12:14.984Z,19.21
2019-05-09T12:13:14.971Z,19.13
2019-05-09T12:14:14.962Z,18.82
2019-05-09T12:15:14.959Z,19.01
2019-05-09T12:16:15.005Z,19.29
2019-05-09T12:17:14.927Z,19.08
2019-05-09T12:18:14.914Z,19.08
2019-05-09T12:19:14.902Z,18.87
2019-05-09T12:20:14.897Z,18.68
2019-05-09T12:21:14.879Z,18.62
2019-05-09T12:22:14.932Z,18.79
2019-05-09T12:23:14.857Z,18.70
2019-05-09T12:24:14.845Z,18.82
2019-05-09T12:25:14.834Z,18.86
2019-05-09T12:26:14.824Z,18.95
2019-05-09T12:27:14.813Z,18.94
2019-05-09T12:28:14.872Z,18.94
2019-05-09T12:29:14.795Z,18.94
2019-05-09T12:30:14.804Z,18.84
2019-05-09T12:31:14.769Z,20.06
2019-05-09T12:32:14.760Z,20.46
2019-05-09T12:33:14.747Z,19.97
2019-05-09T12:34:14.807Z,19.72
2019-05-09T12:35:14.725Z,19.20
2019-05-09T12:36:14.721Z,19.01
2019-05-09T12:37:14.705Z,19.08
2019-05-09T12:38:14.692Z,19.06
2019-05-09T12:39:14.679Z,18.61
2019-05-09T12:40:14.748Z,18.50
2019-05-09T12:41:14.657Z,18.83
2019-05-09T12:42:14.671Z,18.95
2019-05-09T12:43:14.634Z,18.92
2019-05-09T12:44:14.622Z,18.79
2019-05-09T12:45:14.611Z,18.73
2019-05-09T12:46:14.670Z,18.74
2019-05-09T12:47:14.588Z,18.67
2019-05-09T12:48:15.842Z,18.70
2019-05-09T12:49:14.567Z,18.37
2019-05-09T12:50:14.554Z,18.36
2019-05-09T12:51:14.543Z,18.46
2019-05-09T12:52:14.601Z,18.52
2019-05-09T12:53:14.520Z,18.54
2019-05-09T12:54:14.511Z,18.50
2019-05-09T12:55:14.498Z,18.86
2019-05-09T12:56:14.486Z,19.02
2019-05-09T12:57:14.475Z,18.91
2019-05-09T12:58:14.526Z,18.76
2019-05-09T12:59:14.452Z,18.84
2019-05-09T13:00:14.440Z,18.73
2019-05-09T13:01:14.448Z,18.67
2019-05-09T13:02:14.416Z,18.80
2019-05-09T13:03:14.405Z,18.94
2019-05-09T13:04:14.479Z,19.08